Time;durP1;ratioP1;P1;durP2;ratioP2;P2;SDS_P1;SDS_P2;PMS_P1;PMS_P2;Temp;Humidity;BMP_temperature;BMP_pressure;BME280_temperature;BME280_humidity;BME280_pressure;Samples;Min_cycle;Max_cycle;Signal;HPM_P1;HPM_P2
2023/09/28 00:00:35;;;;;;;6.40;4.20;;;;;;;16.26;82.59;100137.20;106868;1270;25471;-62
2023/09/28 00:03:24;;;;;;;7.50;4.50;;;;;;;16.26;82.77;100133.33;106547;1270;22534;-62
2023/09/28 00:05:53;;;;;;;6.50;4.60;;;;;;;16.26;82.75;100135.98;106507;1270;100878;-63
2023/09/28 00:08:22;;;;;;;6.60;4.10;;;;;;;16.30;82.69;100137.86;106526;1271;24342;-63
2023/09/28 00:10:50;;;;;;;5.60;3.80;;;;;;;16.29;82.61;100134.88;106447;1269;101542;-62
2023/09/28 00:13:19;;;;;;;7.50;4.40;;;;;;;16.24;82.54;100138.05;106409;1270;24250;-63
2023/09/28 00:15:48;;;;;;;9.40;4.70;;;;;;;16.23;82.82;100138.99;106469;1264;99422;-63
2023/09/28 00:18:17;;;;;;;5.40;3.80;;;;;;;16.22;82.93;100137.96;106553;1268;22534;-63
2023/09/28 00:20:46;;;;;;;5.70;4.50;;;;;;;16.23;82.79;100135.48;106804;1272;25359;-63
2023/09/28 00:23:16;;;;;;;6.90;4.30;;;;;;;16.24;82.66;100137.16;106528;1268;101553;-62
2023/09/28 00:25:46;;;;;;;6.30;4.40;;;;;;;16.25;82.82;100133.21;106931;1272;22537;-62
2023/09/28 00:28:16;;;;;;;6.90;4.30;;;;;;;16.27;82.84;100135.72;106739;1271;100022;-62
2023/09/28 00:30:45;;;;;;;5.00;4.20;;;;;;;16.27;83.19;100136.80;107083;1270;24356;-62
2023/09/28 00:33:13;;;;;;;7.50;4.00;;;;;;;16.27;83.15;100133.09;106525;1265;22712;-62
2023/09/28 00:35:42;;;;;;;9.20;5.10;;;;;;;16.30;83.02;100132.19;106708;1270;99861;-62
2023/09/28 00:38:10;;;;;;;5.00;3.80;;;;;;;16.31;82.93;100131.77;106952;1265;24240;-62
2023/09/28 00:40:40;;;;;;;6.90;4.50;;;;;;;16.32;82.83;100130.65;106615;1269;99540;-63
2023/09/28 00:43:10;;;;;;;6.80;4.60;;;;;;;16.32;82.86;100128.20;106703;1272;22534;-62
2023/09/28 00:45:59;;;;;;;6.70;3.90;;;;;;;16.31;82.97;100125.08;106770;1271;100333;-62
2023/09/28 00:48:27;;;;;;;5.60;4.50;;;;;;;16.33;82.96;100125.52;106720;1272;24271;-62
2023/09/28 00:50:59;;;;;;;5.20;3.40;;;;;;;16.31;82.98;100122.64;106677;1268;22530;-62
2023/09/28 00:53:28;;;;;;;6.10;4.60;;;;;;;16.30;83.27;100120.23;106587;1267;100354;-62
2023/09/28 00:55:57;;;;;;;5.40;4.10;;;;;;;16.30;83.29;100123.60;106636;1271;22566;-62
2023/09/28 00:58:26;;;;;;;6.10;4.00;;;;;;;16.26;83.40;100121.77;106586;1270;99908;-62
2023/09/28 01:00:54;;;;;;;6.00;4.00;;;;;;;16.23;83.45;100121.44;106667;1272;25591;-62
2023/09/28 01:03:23;;;;;;;6.00;4.60;;;;;;;16.19;83.53;100121.66;106953;1270;25235;-62
2023/09/28 01:05:52;;;;;;;6.10;3.90;;;;;;;16.16;83.75;100122.58;107775;1272;99147;-62
2023/09/28 01:08:22;;;;;;;7.60;4.70;;;;;;;16.13;84.02;100119.80;107019;1274;22591;-62
2023/09/28 01:10:50;;;;;;;6.00;4.40;;;;;;;16.10;84.19;100119.63;106835;1268;99570;-62
2023/09/28 01:13:22;;;;;;;6.40;4.10;;;;;;;16.08;84.00;100116.45;106903;1269;22520;-62
2023/09/28 01:15:51;;;;;;;12.10;5.30;;;;;;;16.05;84.00;100113.84;106626;1253;99586;-63
2023/09/28 01:18:22;;;;;;;5.40;4.50;;;;;;;16.00;84.14;100111.65;106545;1268;24196;-62
2023/09/28 01:20:52;;;;;;;5.00;4.20;;;;;;;15.97;84.11;100113.46;106901;1269;22537;-62
2023/09/28 01:23:20;;;;;;;6.90;4.60;;;;;;;15.94;84.10;100105.58;106752;1263;99311;-62
2023/09/28 01:25:49;;;;;;;5.60;4.10;;;;;;;15.90;84.19;100103.69;106657;1269;22626;-62
2023/09/28 01:28:18;;;;;;;5.00;3.90;;;;;;;15.86;84.37;100104.80;106635;1272;100070;-62
2023/09/28 01:30:49;;;;;;;7.30;4.20;;;;;;;15.82;84.34;100102.43;107141;1269;22533;-62
2023/09/28 01:33:18;;;;;;;7.00;4.30;;;;;;;15.80;84.37;100100.42;106671;1265;23644;-62
2023/09/28 01:35:46;;;;;;;9.60;5.00;;;;;;;15.76;84.51;100101.06;107140;1269;99364;-63
2023/09/28 01:38:42;;;;;;;7.30;3.80;;;;;;;15.72;84.62;100094.48;106615;1263;26504;-62
2023/09/28 01:41:11;;;;;;;7.80;4.20;;;;;;;15.69;84.67;100097.48;107067;1262;99753;-62
2023/09/28 01:43:40;;;;;;;10.00;4.50;;;;;;;15.66;84.85;100092.02;106676;1263;23506;-63
2023/09/28 01:46:10;;;;;;;7.80;5.90;;;;;;;15.63;84.73;100096.25;106601;1263;100546;-62
2023/09/28 01:48:38;;;;;;;7.00;4.70;;;;;;;15.62;84.59;100092.11;107691;1270;24262;-61
2023/09/28 01:51:07;;;;;;;6.20;4.60;;;;;;;15.62;84.84;100089.46;107136;1269;22743;-62
2023/09/28 01:53:36;;;;;;;6.40;4.40;;;;;;;15.61;84.87;100087.94;106576;1263;99282;-63
2023/09/28 01:56:05;;;;;;;7.60;4.80;;;;;;;15.58;84.98;100088.14;106711;1270;22524;-63
2023/09/28 01:58:33;;;;;;;7.10;4.10;;;;;;;15.54;84.98;100087.69;106782;1269;99333;-62
2023/09/28 02:01:03;;;;;;;6.30;4.40;;;;;;;15.50;85.18;100088.95;106422;1263;25023;-63
2023/09/28 02:03:32;;;;;;;6.00;4.30;;;;;;;15.45;85.34;100084.88;106690;1269;22783;-63
2023/09/28 02:06:04;;;;;;;9.00;5.20;;;;;;;15.42;85.37;100082.23;106737;1269;22583;-62
2023/09/28 02:08:34;;;;;;;6.40;5.10;;;;;;;15.41;85.56;100079.48;106608;1269;25490;-63
2023/09/28 02:11:03;;;;;;;6.50;4.50;;;;;;;15.41;85.65;100082.34;107248;1269;100176;-63
2023/09/28 02:13:32;;;;;;;7.20;4.40;;;;;;;15.41;85.49;100077.20;106489;1270;22531;-62
2023/09/28 02:16:00;;;;;;;7.60;4.90;;;;;;;15.38;85.71;100079.33;106839;1269;99878;-61
2023/09/28 02:18:29;;;;;;;7.10;5.10;;;;;;;15.35;85.80;100073.39;106872;1265;25288;-61
2023/09/28 02:20:57;;;;;;;8.50;5.50;;;;;;;15.33;86.08;100074.20;106691;1269;22539;-63
2023/09/28 02:23:26;;;;;;;8.90;5.20;;;;;;;15.30;86.00;100072.98;106565;1269;100779;-62
2023/09/28 02:25:57;;;;;;;7.00;5.00;;;;;;;15.27;86.11;100077.01;106643;1269;25491;-63
2023/09/28 02:28:26;;;;;;;8.40;5.50;;;;;;;15.22;86.16;100067.67;106266;1274;100307;-63
2023/09/28 02:30:54;;;;;;;8.70;4.50;;;;;;;15.19;86.49;100067.02;106612;1272;26389;-62
2023/09/28 02:33:24;;;;;;;9.20;6.00;;;;;;;15.16;86.53;100062.13;106351;1272;22552;-62
2023/09/28 02:35:53;;;;;;;7.10;4.70;;;;;;;15.14;86.73;100061.33;106515;1272;99256;-63
2023/09/28 02:38:21;;;;;;;9.70;5.20;;;;;;;15.12;86.72;100062.19;106671;1268;22536;-63
2023/09/28 02:40:50;;;;;;;5.70;4.70;;;;;;;15.11;86.90;100062.21;106592;1269;99819;-63
2023/09/28 02:43:19;;;;;;;7.30;5.40;;;;;;;15.11;86.87;100062.95;107328;1270;24060;-62
2023/09/28 02:45:47;;;;;;;8.00;4.90;;;;;;;15.11;87.20;100063.33;106719;1269;99422;-63
2023/09/28 02:48:16;;;;;;;6.60;4.50;;;;;;;15.08;87.35;100062.41;106728;1269;25491;-63
2023/09/28 02:50:45;;;;;;;7.40;5.10;;;;;;;15.05;87.33;100063.67;106586;1269;22531;-63
2023/09/28 02:53:13;;;;;;;10.60;5.40;;;;;;;15.03;87.29;100062.19;106773;1270;100114;-62
2023/09/28 02:55:42;;;;;;;5.70;4.90;;;;;;;14.99;87.32;100065.89;106904;1269;24210;-63
2023/09/28 02:58:10;;;;;;;8.00;5.30;;;;;;;14.97;87.27;100066.77;106386;1269;100004;-63
2023/09/28 03:00:39;;;;;;;7.50;4.80;;;;;;;14.93;87.37;100068.04;106599;1270;22532;-63
2023/09/28 03:03:09;;;;;;;6.60;5.00;;;;;;;14.89;87.55;100067.77;106658;1269;22537;-62
2023/09/28 03:05:39;;;;;;;5.60;4.40;;;;;;;14.84;87.53;100068.73;106666;1268;99881;-62
2023/09/28 03:08:09;;;;;;;8.00;4.70;;;;;;;14.80;87.59;100067.27;106540;1272;24222;-62
2023/09/28 03:10:41;;;;;;;7.10;4.50;;;;;;;14.74;87.67;100070.77;106723;1270;99272;-62
2023/09/28 03:13:13;;;;;;;6.30;5.50;;;;;;;14.69;87.68;100064.73;106772;1269;22525;-62
2023/09/28 03:15:43;;;;;;;13.60;5.10;;;;;;;14.63;87.62;100065.81;106556;1269;100043;-62
2023/09/28 03:18:14;;;;;;;7.20;5.10;;;;;;;14.59;87.74;100063.98;106728;1269;22529;-62
2023/09/28 03:20:44;;;;;;;6.60;5.10;;;;;;;14.55;87.93;100065.38;107326;1269;22549;-62
2023/09/28 03:23:12;;;;;;;8.60;4.50;;;;;;;14.53;87.93;100064.42;107645;1269;99368;-62
2023/09/28 03:25:42;;;;;;;6.90;4.60;;;;;;;14.52;87.97;100060.09;106846;1270;24713;-62
2023/09/28 03:28:11;;;;;;;5.40;4.50;;;;;;;14.51;87.86;100059.46;106614;1274;99900;-62
2023/09/28 03:30:40;;;;;;;9.40;5.10;;;;;;;14.51;87.87;100061.91;106869;1269;25379;-62
2023/09/28 03:33:08;;;;;;;7.20;4.90;;;;;;;14.54;87.86;100063.48;106608;1269;22684;-63
2023/09/28 03:35:37;;;;;;;6.50;4.50;;;;;;;14.58;87.75;100059.44;106855;1263;102445;-63
2023/09/28 03:38:05;;;;;;;5.40;4.10;;;;;;;14.59;87.73;100059.73;107126;1270;25246;-63
2023/09/28 03:40:34;;;;;;;7.90;4.60;;;;;;;14.60;87.62;100060.38;106821;1270;99823;-62
2023/09/28 03:43:03;;;;;;;6.70;5.00;;;;;;;14.62;87.73;100059.90;106663;1269;24073;-63
2023/09/28 03:45:32;;;;;;;11.40;5.20;;;;;;;14.61;87.70;100062.58;106831;1275;25078;-62
2023/09/28 03:48:00;;;;;;;6.30;4.20;;;;;;;14.60;87.77;100062.11;106649;1269;100755;-62
2023/09/28 03:50:29;;;;;;;6.60;4.70;;;;;;;14.60;87.90;100061.23;106553;1270;22529;-62
2023/09/28 03:52:58;;;;;;;13.40;5.40;;;;;;;14.60;87.88;100063.38;106552;1259;99792;-62
2023/09/28 03:55:26;;;;;;;5.80;4.50;;;;;;;14.60;87.91;100058.27;106651;1270;25348;-63
2023/09/28 03:58:00;;;;;;;8.90;4.60;;;;;;;14.61;88.06;100058.42;106498;1268;100030;-62
2023/09/28 04:00:30;;;;;;;9.00;5.00;;;;;;;14.60;88.04;100059.52;106843;1275;22527;-63
2023/09/28 04:02:59;;;;;;;8.60;4.80;;;;;;;14.62;88.05;100056.25;106675;1269;22522;-63
2023/09/28 04:05:28;;;;;;;6.50;4.70;;;;;;;14.63;87.89;100053.52;106650;1270;99845;-62
2023/09/28 04:07:56;;;;;;;7.90;4.80;;;;;;;14.63;87.91;100051.08;106529;1269;25306;-62
2023/09/28 04:10:26;;;;;;;8.20;5.10;;;;;;;14.61;87.87;100054.02;106670;1275;99882;-62
2023/09/28 04:12:54;;;;;;;5.70;4.30;;;;;;;14.59;87.97;100056.21;106934;1265;22687;-61
2023/09/28 04:15:23;;;;;;;9.40;4.60;;;;;;;14.60;87.94;100056.56;106997;1269;26537;-62
2023/09/28 04:17:51;;;;;;;11.20;5.10;;;;;;;14.60;87.86;100050.95;106641;1272;99306;-63
2023/09/28 04:20:20;;;;;;;5.00;4.10;;;;;;;14.60;87.94;100050.72;106841;1271;22551;-62
2023/09/28 04:22:49;;;;;;;8.10;4.60;;;;;;;14.61;87.83;100053.12;106624;1273;101415;-62
2023/09/28 04:25:20;;;;;;;5.20;4.30;;;;;;;14.60;87.88;100051.48;107176;1270;24248;-62
2023/09/28 04:27:49;;;;;;;5.60;4.20;;;;;;;14.58;87.89;100048.25;107106;1269;99426;-62
2023/09/28 04:30:19;;;;;;;5.20;3.70;;;;;;;14.57;87.88;100052.69;107382;1270;22545;-63
2023/09/28 04:32:51;;;;;;;7.10;5.50;;;;;;;14.55;87.93;100049.79;106690;1270;22544;-63
2023/09/28 04:35:20;;;;;;;6.00;4.20;;;;;;;14.54;88.00;100048.81;106818;1272;99419;-64
2023/09/28 04:37:49;;;;;;;6.70;4.50;;;;;;;14.52;87.98;100048.88;107126;1269;22529;-62
2023/09/28 04:40:24;;;;;;;7.40;4.50;;;;;;;14.50;88.03;100051.10;106435;1270;100234;-62
2023/09/28 04:42:53;;;;;;;6.10;4.50;;;;;;;14.50;88.11;100050.75;106752;1269;23024;-62
2023/09/28 04:45:22;;;;;;;8.20;5.60;;;;;;;14.50;88.05;100052.99;106889;1269;22536;-62
2023/09/28 04:47:51;;;;;;;6.50;4.70;;;;;;;14.53;87.80;100050.93;106645;1269;100889;-63
2023/09/28 04:50:20;;;;;;;7.80;4.70;;;;;;;14.52;88.07;100048.86;107030;1270;22534;-62
2023/09/28 04:52:49;;;;;;;4.90;4.30;;;;;;;14.52;88.13;100050.30;106899;1270;99277;-63
2023/09/28 04:55:18;;;;;;;7.80;4.90;;;;;;;14.51;88.08;100052.09;106875;1269;25425;-62
2023/09/28 04:57:46;;;;;;;6.50;4.20;;;;;;;14.52;88.15;100052.90;106799;1269;100472;-62
2023/09/28 05:00:16;;;;;;;8.60;4.50;;;;;;;14.55;88.06;100053.61;106552;1270;22542;-63
2023/09/28 05:02:47;;;;;;;8.30;4.50;;;;;;;14.59;88.08;100046.22;106680;1269;22523;-63
2023/09/28 05:05:17;;;;;;;6.40;5.10;;;;;;;14.65;88.16;100047.48;106432;1272;99965;-63
2023/09/28 05:07:46;;;;;;;7.30;4.70;;;;;;;14.69;88.09;100047.02;107234;1270;22527;-63
2023/09/28 05:10:16;;;;;;;8.10;4.70;;;;;;;14.73;88.14;100047.19;107278;1270;101462;-63
2023/09/28 05:12:44;;;;;;;8.00;5.20;;;;;;;14.75;88.07;100046.52;106503;1275;22693;-62
2023/09/28 05:15:15;;;;;;;6.20;4.40;;;;;;;14.77;88.17;100046.38;106470;1269;23923;-62
2023/09/28 05:17:44;;;;;;;8.10;5.30;;;;;;;14.80;88.11;100049.02;106579;1269;99857;-60
2023/09/28 05:20:13;;;;;;;6.00;3.60;;;;;;;14.85;88.27;100053.81;106519;1270;22634;-64
2023/09/28 05:22:43;;;;;;;7.40;4.50;;;;;;;14.91;88.22;100052.92;106624;1269;100081;-62
2023/09/28 05:25:12;;;;;;;7.90;4.80;;;;;;;14.97;88.34;100056.92;106513;1269;278872;-65
2023/09/28 05:27:41;;;;;;;9.60;6.00;;;;;;;15.05;88.27;100055.79;107239;1273;99632;-64
2023/09/28 05:30:10;;;;;;;6.80;5.00;;;;;;;15.11;88.38;100054.54;106651;1272;25413;-68
2023/09/28 05:32:39;;;;;;;10.10;6.00;;;;;;;15.19;88.37;100052.81;106834;1269;25509;-63
2023/09/28 05:35:08;;;;;;;6.50;5.30;;;;;;;15.26;88.36;100049.54;106775;1269;100277;-64
2023/09/28 05:37:37;;;;;;;7.20;5.90;;;;;;;15.32;88.32;100051.80;106807;1272;25243;-64
2023/09/28 05:40:07;;;;;;;8.30;5.00;;;;;;;15.40;88.39;100054.14;107305;1270;100172;-64
2023/09/28 05:42:36;;;;;;;9.00;5.30;;;;;;;15.52;88.54;100052.16;106769;1270;22544;-67
2023/09/28 05:45:05;;;;;;;12.40;8.00;;;;;;;15.63;88.53;100057.29;106834;1269;25421;-66
2023/09/28 05:47:37;;;;;;;6.40;4.70;;;;;;;15.75;88.52;100059.50;106688;1269;99463;-64
2023/09/28 05:50:07;;;;;;;7.00;4.70;;;;;;;15.86;88.47;100057.94;107060;1270;22559;-63
2023/09/28 05:52:36;;;;;;;8.00;5.10;;;;;;;15.99;88.53;100059.27;107151;1273;103369;-64
2023/09/28 05:55:05;;;;;;;7.60;5.30;;;;;;;16.09;88.53;100058.04;107117;1269;24101;-66
2023/09/28 05:57:33;;;;;;;10.50;6.00;;;;;;;16.23;88.53;100055.92;110135;1272;22370;-65
2023/09/28 06:00:08;;;;;;;10.90;5.70;;;;;;;16.34;88.49;100053.95;110302;1272;99282;-60
2023/09/28 06:02:42;;;;;;;7.60;6.60;;;;;;;16.49;88.48;100052.98;110342;1272;23144;-64
2023/09/28 06:05:11;;;;;;;8.50;6.10;;;;;;;16.61;88.39;100049.36;109493;1270;99717;-64
2023/09/28 06:07:40;;;;;;;8.00;5.10;;;;;;;16.79;88.21;100048.71;107135;1269;22554;-73
2023/09/28 06:10:09;;;;;;;11.80;6.70;;;;;;;16.96;87.97;100049.31;106602;1276;100827;-65
2023/09/28 06:12:37;;;;;;;6.20;5.10;;;;;;;17.09;87.95;100047.54;107006;1272;22527;-62
2023/09/28 06:15:08;;;;;;;8.40;5.70;;;;;;;17.24;87.73;100047.58;106650;1276;22740;-58
2023/09/28 06:17:37;;;;;;;8.50;5.00;;;;;;;17.37;87.72;100044.70;106502;1270;99270;-61
2023/09/28 06:20:08;;;;;;;6.80;5.60;;;;;;;17.50;87.52;100040.61;107404;1271;22523;-61
2023/09/28 06:22:36;;;;;;;9.90;5.90;;;;;;;17.62;87.28;100046.06;106671;1270;100093;-62
2023/09/28 06:25:08;;;;;;;7.80;5.00;;;;;;;17.75;87.12;100047.12;106777;1273;22527;-64
2023/09/28 06:27:37;;;;;;;7.40;5.20;;;;;;;17.87;87.05;100046.75;106920;1270;23906;-58
2023/09/28 06:30:07;;;;;;;7.50;5.50;;;;;;;17.97;86.89;100045.34;106568;1270;22649;-56
2023/09/28 06:32:35;;;;;;;10.30;5.50;;;;;;;18.07;86.50;100041.65;107056;1270;25335;-65
2023/09/28 06:35:05;;;;;;;7.10;5.50;;;;;;;18.19;86.16;100047.26;106620;1266;99608;-60
2023/09/28 06:37:34;;;;;;;7.30;5.00;;;;;;;18.35;86.05;100045.06;106904;1270;25352;-66
2023/09/28 06:40:03;;;;;;;9.30;5.90;;;;;;;18.49;85.64;100047.30;106483;1270;100025;-63
2023/09/28 06:42:31;;;;;;;13.30;6.00;;;;;;;18.64;85.44;100046.02;106725;1270;24293;-65
2023/09/28 06:45:06;;;;;;;5.60;4.80;;;;;;;18.85;85.38;100042.73;107674;1273;22624;-64
2023/09/28 06:47:35;;;;;;;9.10;5.90;;;;;;;18.99;84.92;100043.54;106891;1270;99312;-65
2023/09/28 06:50:25;;;;;;;7.00;5.50;;;;;;;19.16;84.61;100046.67;106695;1269;23184;-63
2023/09/28 06:52:55;;;;;;;9.10;5.50;;;;;;;19.30;84.52;100045.23;107351;1270;99421;-65
2023/09/28 06:55:23;;;;;;;8.60;5.70;;;;;;;19.36;83.93;100047.75;106682;1269;22536;-65
2023/09/28 06:57:53;;;;;;;8.10;4.40;;;;;;;19.40;83.61;100046.88;106602;1270;99914;-65
2023/09/28 07:00:22;;;;;;;7.60;5.10;;;;;;;19.51;83.38;100045.33;106466;1267;24288;-66
2023/09/28 07:02:51;;;;;;;9.10;6.20;;;;;;;19.61;82.65;100050.57;108119;1270;22865;-64
2023/09/28 07:05:22;;;;;;;5.80;4.90;;;;;;;19.74;82.39;100046.37;106726;1269;100690;-65
2023/09/28 07:07:51;;;;;;;6.70;5.00;;;;;;;19.89;82.16;100047.44;106906;1272;23547;-65
2023/09/28 07:10:19;;;;;;;7.50;4.80;;;;;;;20.22;82.41;100047.71;106895;1269;99513;-65
2023/09/28 07:12:48;;;;;;;5.60;4.30;;;;;;;20.42;81.45;100049.33;106629;1273;22600;-63
2023/09/28 07:15:17;;;;;;;5.90;4.50;;;;;;;20.53;81.13;100047.50;106945;1274;22723;-64
2023/09/28 07:17:46;;;;;;;8.80;5.40;;;;;;;20.73;80.89;100047.80;106579;1270;99187;-64
2023/09/28 07:20:14;;;;;;;9.30;5.00;;;;;;;20.83;79.94;100048.36;106669;1264;24209;-64
2023/09/28 07:22:44;;;;;;;7.50;4.50;;;;;;;20.90;79.36;100048.48;107387;1270;99298;-64
2023/09/28 07:25:12;;;;;;;7.10;4.70;;;;;;;21.07;79.18;100049.14;106683;1270;25519;-65
2023/09/28 07:27:42;;;;;;;7.70;4.90;;;;;;;21.25;78.95;100050.41;107977;1270;100030;-64
2023/09/28 07:30:12;;;;;;;7.10;4.40;;;;;;;21.62;78.80;100043.08;106824;1270;24249;-65
2023/09/28 07:32:41;;;;;;;9.60;5.70;;;;;;;21.89;77.84;100049.05;107379;1275;25540;-65
2023/09/28 07:35:11;;;;;;;8.40;4.30;;;;;;;22.05;77.33;100044.92;106857;1270;99905;-63
2023/09/28 07:37:42;;;;;;;7.20;4.80;;;;;;;22.21;76.95;100049.21;107134;1270;26573;-64
2023/09/28 07:40:12;;;;;;;10.10;5.40;;;;;;;22.29;76.31;100046.77;106563;1271;99961;-63
2023/09/28 07:42:43;;;;;;;7.70;4.50;;;;;;;22.42;75.93;100053.88;106638;1271;23947;-63
2023/09/28 07:45:13;;;;;;;8.10;4.50;;;;;;;22.67;75.89;100050.52;107085;1270;24368;-64
2023/09/28 07:47:42;;;;;;;5.50;3.70;;;;;;;23.02;75.80;100048.11;107079;1270;99870;-65
2023/09/28 07:50:14;;;;;;;7.70;4.80;;;;;;;23.14;74.66;100047.25;106643;1270;24361;-64
2023/09/28 07:52:44;;;;;;;6.10;4.60;;;;;;;23.30;74.46;100047.75;106711;1270;101464;-63
2023/09/28 07:55:14;;;;;;;8.80;5.10;;;;;;;23.36;73.71;100045.63;106831;1270;22521;-63
2023/09/28 07:57:43;;;;;;;5.30;4.20;;;;;;;23.38;73.29;100048.23;107034;1270;100348;-63
2023/09/28 08:00:27;;;;;;;7.40;4.40;;;;;;;23.61;72.83;100046.63;106706;1270;22563;-63
2023/09/28 08:02:55;;;;;;;13.70;5.10;;;;;;;23.94;72.49;100048.73;107323;1270;25242;-63
2023/09/28 08:05:24;;;;;;;7.40;3.70;;;;;;;24.60;72.18;100044.50;107041;1273;99604;-66
2023/09/28 08:07:53;;;;;;;5.60;3.40;;;;;;;25.47;71.39;100044.45;106904;1269;23889;-61
2023/09/28 08:10:38;;;;;;;5.70;3.30;;;;;;;26.81;71.19;100042.56;106504;1270;99674;-62
2023/09/28 08:13:07;;;;;;;4.40;3.00;;;;;;;28.64;71.63;100043.29;106780;1270;22523;-61
2023/09/28 08:15:53;;;;;;;5.70;3.50;;;;;;;30.35;68.54;100047.66;106445;1270;99476;-60
2023/09/28 08:18:22;;;;;;;12.20;3.60;;;;;;;30.83;65.72;100039.98;106737;1270;24422;-61
2023/09/28 08:20:54;;;;;;;7.80;4.00;;;;;;;31.59;65.79;100042.13;106447;1270;24364;-59
2023/09/28 08:23:38;;;;;;;3.90;2.70;;;;;;;33.18;65.35;100044.11;106574;1270;99350;-61
2023/09/28 08:26:09;;;;;;;2.90;2.50;;;;;;;34.94;63.47;100036.77;106886;1270;22533;-61
2023/09/28 08:28:38;;;;;;;3.40;2.60;;;;;;;36.19;60.43;100033.17;106697;1270;101006;-60
2023/09/28 08:31:07;;;;;;;8.30;3.80;;;;;;;36.51;57.18;100038.77;107432;1270;24272;-61
2023/09/28 08:33:36;;;;;;;5.40;2.80;;;;;;;36.85;54.69;100034.39;106883;1270;23012;-60
2023/09/28 08:36:08;;;;;;;4.10;2.30;;;;;;;37.60;52.76;100030.64;106992;1273;22528;-62
2023/09/28 08:38:38;;;;;;;2.70;2.20;;;;;;;37.97;49.25;100035.44;106794;1270;22629;-61
2023/09/28 08:41:10;;;;;;;2.90;2.30;;;;;;;38.57;47.84;100030.31;106897;1270;99615;-60
2023/09/28 08:43:43;;;;;;;6.60;3.30;;;;;;;39.14;45.16;100021.80;106725;1270;22643;-61
2023/09/28 08:46:14;;;;;;;4.70;2.50;;;;;;;39.62;43.85;100019.34;106824;1270;100477;-61
2023/09/28 08:48:47;;;;;;;3.20;2.30;;;;;;;39.80;39.65;100021.39;106555;1270;24470;-61
2023/09/28 08:51:16;;;;;;;3.00;2.20;;;;;;;39.52;37.95;100014.80;106753;1269;25335;-61
2023/09/28 08:53:48;;;;;;;4.60;2.30;;;;;;;39.79;35.35;100011.98;106556;1269;99800;-61
2023/09/28 08:56:17;;;;;;;5.10;2.00;;;;;;;39.80;33.92;100007.08;107031;1255;22596;-61
2023/09/28 08:58:47;;;;;;;3.20;1.90;;;;;;;39.61;32.59;100003.91;107192;1269;99228;-61
2023/09/28 09:01:17;;;;;;;3.30;2.40;;;;;;;39.69;31.44;100004.39;106770;1270;25367;-61
2023/09/28 09:03:47;;;;;;;4.30;2.50;;;;;;;39.72;30.81;100001.58;106553;1270;100001;-62
2023/09/28 09:06:16;;;;;;;4.30;1.80;;;;;;;40.46;30.91;99999.93;107074;1270;25322;-62
2023/09/28 09:08:48;;;;;;;2.30;2.00;;;;;;;41.42;30.08;100002.45;106720;1271;24394;-62
2023/09/28 09:11:18;;;;;;;2.80;2.00;;;;;;;41.32;28.85;99994.34;106875;1269;99199;-62
2023/09/28 09:13:53;;;;;;;3.90;2.30;;;;;;;41.03;27.22;99992.80;106929;1269;26374;-61
2023/09/28 09:16:27;;;;;;;5.00;1.90;;;;;;;40.77;27.23;99988.27;106455;1267;99328;-62
2023/09/28 09:18:57;;;;;;;2.70;1.70;;;;;;;41.13;26.76;99989.89;106737;1270;22542;-60
2023/09/28 09:21:40;;;;;;;3.10;2.20;;;;;;;41.53;26.47;99991.08;106902;1266;22550;-61
2023/09/28 09:24:11;;;;;;;2.50;1.90;;;;;;;41.82;26.19;99986.15;106724;1270;25370;-61
2023/09/28 09:26:42;;;;;;;4.10;2.00;;;;;;;42.71;26.38;99984.45;107007;1269;26525;-61
2023/09/28 09:29:12;;;;;;;2.20;1.70;;;;;;;44.07;26.69;99982.73;106692;1270;99997;-61
2023/09/28 09:31:43;;;;;;;2.60;1.70;;;;;;;44.43;25.36;99982.14;106711;1269;22581;-60
2023/09/28 09:34:17;;;;;;;3.50;1.90;;;;;;;44.35;24.28;99985.45;107231;1270;100129;-61
2023/09/28 09:36:57;;;;;;;3.20;1.70;;;;;;;43.86;23.75;99979.30;106528;1273;23910;-59
2023/09/28 09:39:32;;;;;;;3.60;2.10;;;;;;;44.10;23.76;99979.13;107525;1271;22668;-62
2023/09/28 09:42:08;;;;;;;4.90;1.90;;;;;;;44.85;23.56;99981.28;106718;1263;100554;-59
2023/09/28 09:44:42;;;;;;;4.20;2.00;;;;;;;45.42;23.32;99982.79;106575;1270;24498;-60
2023/09/28 09:47:17;;;;;;;7.40;2.80;;;;;;;45.99;22.93;99978.88;106636;1270;99690;-62
2023/09/28 09:49:53;;;;;;;3.90;1.50;;;;;;;45.89;22.10;99979.77;106603;1269;22530;-60
2023/09/28 09:52:28;;;;;;;2.30;2.00;;;;;;;45.38;21.49;99971.42;106803;1270;99974;-60
2023/09/28 09:55:00;;;;;;;2.20;1.70;;;;;;;45.33;21.57;99969.94;106930;1270;25350;-61
2023/09/28 09:57:35;;;;;;;2.20;1.90;;;;;;;45.54;20.97;99969.50;106898;1270;25268;-64
2023/09/28 10:00:08;;;;;;;2.40;1.90;;;;;;;45.45;20.82;99964.97;106950;1270;99353;-57
2023/09/28 10:02:42;;;;;;;2.30;2.00;;;;;;;45.76;20.59;99962.81;106921;1272;25203;-58
2023/09/28 10:05:13;;;;;;;4.40;1.60;;;;;;;46.18;20.84;99958.14;106585;1271;99089;-58
2023/09/28 10:07:43;;;;;;;2.40;1.80;;;;;;;46.52;20.29;99957.59;106784;1270;22535;-60
2023/09/28 10:10:15;;;;;;;4.40;1.80;;;;;;;46.40;19.70;99962.89;107459;1253;99882;-60
2023/09/28 10:12:44;;;;;;;4.10;2.50;;;;;;;45.81;19.04;99964.81;108443;1270;22523;-56
2023/09/28 10:15:15;;;;;;;2.90;1.70;;;;;;;45.75;19.52;99965.14;106690;1269;24031;-58
2023/09/28 10:17:45;;;;;;;4.30;1.80;;;;;;;45.94;18.87;99964.73;107766;1271;100135;-57
2023/09/28 10:20:14;;;;;;;5.00;2.00;;;;;;;45.89;19.02;99963.87;106701;1272;24244;-58
2023/09/28 10:22:47;;;;;;;2.30;1.70;;;;;;;46.00;18.78;99965.19;106550;1271;99098;-59
2023/09/28 10:25:17;;;;;;;2.70;1.80;;;;;;;45.87;18.43;99963.29;106769;1273;22547;-59
2023/09/28 10:27:49;;;;;;;12.40;3.00;;;;;;;45.39;18.43;99961.24;106676;1270;99335;-59
2023/09/28 10:30:21;;;;;;;2.80;1.70;;;;;;;45.69;18.67;99956.64;106752;1272;23876;-59
2023/09/28 10:32:54;;;;;;;3.60;1.90;;;;;;;46.15;18.62;99960.77;106621;1271;23016;-60
2023/09/28 10:35:28;;;;;;;3.30;1.70;;;;;;;46.87;18.99;99957.13;109503;1272;100869;-61
2023/09/28 10:38:16;;;;;;;;;;;;;;;47.65;18.70;99957.45;108951;1272;22837;-61
2023/09/28 10:41:01;;;;;;;2.20;1.80;;;;;;;47.98;18.60;99958.88;108035;1272;85830;-58
2023/09/28 10:43:34;;;;;;;3.90;2.10;;;;;;;48.83;18.39;99958.02;106982;1272;22544;-63
2023/09/28 10:46:07;;;;;;;2.90;1.90;;;;;;;48.30;17.54;99954.34;106520;1271;99902;-61
2023/09/28 10:48:44;;;;;;;3.20;2.00;;;;;;;47.98;16.98;99955.05;106914;1272;22634;-58
2023/09/28 10:51:17;;;;;;;4.60;1.80;;;;;;;47.62;17.23;99948.48;106889;1268;22538;-57
2023/09/28 10:53:49;;;;;;;3.10;2.00;;;;;;;48.02;17.09;99953.39;107027;1263;100106;-60
2023/09/28 10:56:26;;;;;;;2.30;2.10;;;;;;;48.26;17.33;99948.96;106952;1272;22770;-57
2023/09/28 10:59:04;;;;;;;3.60;2.10;;;;;;;49.09;17.19;99949.40;108119;1271;99907;-65
2023/09/28 11:01:40;;;;;;;2.50;2.00;;;;;;;49.60;17.51;99951.93;107387;1270;22551;-63
2023/09/28 11:04:10;;;;;;;2.40;2.20;;;;;;;50.25;17.18;99953.33;107777;1270;99869;-64
2023/09/28 11:06:41;;;;;;;3.40;2.40;;;;;;;50.92;17.40;99953.16;107067;1272;22527;-61
2023/09/28 11:09:14;;;;;;;3.10;2.60;;;;;;;51.94;17.52;99942.65;107124;1265;25189;-62
2023/09/28 11:11:45;;;;;;;3.00;2.80;;;;;;;52.17;16.43;99941.30;106702;1270;98381;-63
2023/09/28 11:14:15;;;;;;;3.50;3.20;;;;;;;51.63;16.03;99939.41;106754;1270;23915;-60
2023/09/28 11:16:49;;;;;;;3.70;3.40;;;;;;;51.66;16.00;99925.75;107700;1268;101081;-70
2023/09/28 11:19:20;;;;;;;3.80;3.50;;;;;;;51.55;15.71;99933.01;107091;1270;22534;-57
2023/09/28 11:21:52;;;;;;;4.00;3.70;;;;;;;51.44;15.60;99932.02;110264;1269;99925;-61
2023/09/28 11:24:23;;;;;;;6.80;4.10;;;;;;;51.88;15.74;99931.63;106857;1272;22547;-62
2023/09/28 11:26:52;;;;;;;4.30;3.90;;;;;;;52.76;15.87;99929.13;106865;1256;24329;-60
2023/09/28 11:29:21;;;;;;;5.00;4.60;;;;;;;52.35;14.69;99926.52;106827;1270;99703;-59
2023/09/28 11:31:54;;;;;;;7.10;4.40;;;;;;;50.92;14.51;99924.73;107254;1272;22664;-59